Time;durP1;ratioP1;P1;durP2;ratioP2;P2;SDS_P1;SDS_P2;PMS_P1;PMS_P2;Temp;Humidity;BMP_temperature;BMP_pressure;BME280_temperature;BME280_humidity;BME280_pressure;Samples;Min_cycle;Max_cycle;Signal;HPM_P1;HPM_P2
2024/01/30 00:01:41;;;;;;;5.72;5.13;;;7.80;99.90;;;;;;5102842;28;20023;-35
2024/01/30 00:04:07;;;;;;;6.25;4.97;;;7.90;99.90;;;;;;5102004;28;20024;-36
2024/01/30 00:06:33;;;;;;;5.82;5.22;;;7.80;99.90;;;;;;5100444;28;20031;-35
2024/01/30 00:08:58;;;;;;;7.78;5.90;;;7.80;99.90;;;;;;5100392;28;20039;-35
2024/01/30 00:11:28;;;;;;;5.20;4.63;;;7.80;99.90;;;;;;5099758;28;20055;-35
2024/01/30 00:13:57;;;;;;;5.82;5.05;;;7.70;99.90;;;;;;5100407;28;20055;-34
2024/01/30 00:16:27;;;;;;;5.82;5.20;;;7.70;99.90;;;;;;5100137;28;20059;-33
2024/01/30 00:18:53;;;;;;;6.10;5.50;;;7.60;99.90;;;;;;5101275;28;20030;-34
2024/01/30 00:21:19;;;;;;;5.63;5.00;;;7.60;99.90;;;;;;5100981;28;20112;-31
2024/01/30 00:23:44;;;;;;;5.35;4.85;;;7.50;99.90;;;;;;5102011;28;20020;-37
2024/01/30 00:26:11;;;;;;;6.00;5.07;;;7.50;99.90;;;;;;5101018;28;20027;-32
2024/01/30 00:28:39;;;;;;;6.38;4.82;;;7.50;99.90;;;;;;5101320;28;20173;-32
2024/01/30 00:31:05;;;;;;;5.20;4.70;;;7.40;99.90;;;;;;5101457;28;20019;-34
2024/01/30 00:33:30;;;;;;;5.88;4.85;;;7.40;99.90;;;;;;5102122;28;20020;-34
2024/01/30 00:35:56;;;;;;;6.13;5.05;;;7.40;99.90;;;;;;5100663;28;20435;-32
2024/01/30 00:38:22;;;;;;;5.50;4.80;;;7.30;99.90;;;;;;5102139;28;20916;-36
2024/01/30 00:40:48;;;;;;;6.18;5.18;;;7.30;99.90;;;;;;5101790;28;20127;-33
2024/01/30 00:43:13;;;;;;;5.82;5.10;;;7.30;99.90;;;;;;5099482;28;20052;-36
2024/01/30 00:45:39;;;;;;;5.85;4.50;;;7.20;99.90;;;;;;5101568;28;20381;-33
2024/01/30 00:48:05;;;;;;;6.15;4.97;;;7.20;99.90;;;;;;5101222;28;20031;-33
2024/01/30 00:50:31;;;;;;;5.93;5.07;;;7.20;99.90;;;;;;5101649;28;20038;-35
2024/01/30 00:52:56;;;;;;;6.13;5.15;;;7.20;99.90;;;;;;5101431;28;20730;-35
2024/01/30 00:55:22;;;;;;;5.45;4.90;;;7.20;99.90;;;;;;5100118;28;20538;-36
2024/01/30 00:57:50;;;;;;;5.57;5.00;;;7.10;99.90;;;;;;5101990;28;20720;-35
2024/01/30 01:00:18;;;;;;;5.30;4.40;;;7.10;99.90;;;;;;5101540;28;20020;-33
2024/01/30 01:02:44;;;;;;;5.90;5.22;;;7.10;99.90;;;;;;5100974;28;20391;-35
2024/01/30 01:05:10;;;;;;;5.28;4.70;;;7.00;99.90;;;;;;5101558;28;20011;-34
2024/01/30 01:07:35;;;;;;;5.75;5.13;;;7.00;99.90;;;;;;5100912;28;20027;-35
2024/01/30 01:10:02;;;;;;;7.10;5.68;;;7.00;99.90;;;;;;5100784;28;20169;-35
2024/01/30 01:12:28;;;;;;;6.32;5.25;;;7.00;99.90;;;;;;5101459;28;20158;-35
2024/01/30 01:14:53;;;;;;;6.00;5.00;;;7.00;99.90;;;;;;5100836;28;20403;-34
2024/01/30 01:17:21;;;;;;;5.82;5.20;;;7.00;99.90;;;;;;5100667;28;20028;-36
2024/01/30 01:19:47;;;;;;;5.55;4.85;;;7.00;99.90;;;;;;5087480;28;20449;-30
2024/01/30 01:22:12;;;;;;;5.57;5.05;;;6.90;99.90;;;;;;5100485;28;20019;-32
2024/01/30 01:24:38;;;;;;;5.70;5.10;;;6.90;99.90;;;;;;5099435;28;20127;-31
2024/01/30 01:27:05;;;;;;;7.85;5.75;;;6.90;99.90;;;;;;5100562;28;20118;-32
2024/01/30 01:29:31;;;;;;;5.53;4.90;;;6.90;99.90;;;;;;5100728;28;20040;-34
2024/01/30 01:31:57;;;;;;;5.43;4.85;;;6.90;99.90;;;;;;5099924;28;20027;-34
2024/01/30 01:34:25;;;;;;;5.80;5.15;;;6.90;99.90;;;;;;5099987;28;20044;-37
2024/01/30 01:36:51;;;;;;;5.65;4.95;;;6.80;99.90;;;;;;5100256;28;20110;-36
2024/01/30 01:39:20;;;;;;;5.05;4.25;;;6.80;99.90;;;;;;5100017;28;20527;-31
2024/01/30 01:41:46;;;;;;;5.60;5.00;;;6.80;99.90;;;;;;5101129;28;20028;-33
2024/01/30 01:44:12;;;;;;;5.72;5.03;;;6.80;99.90;;;;;;5099646;28;20084;-32
2024/01/30 01:46:37;;;;;;;7.25;5.07;;;6.80;99.90;;;;;;5098643;28;20027;-35
2024/01/30 01:49:05;;;;;;;5.38;4.63;;;6.80;99.90;;;;;;5100070;28;20583;-33
2024/01/30 01:51:33;;;;;;;7.53;5.45;;;6.70;99.90;;;;;;5099563;28;20406;-33
2024/01/30 01:54:02;;;;;;;5.88;5.03;;;6.70;99.90;;;;;;5100348;28;20031;-34
2024/01/30 01:56:33;;;;;;;5.47;4.75;;;6.70;99.90;;;;;;5098378;28;20564;-34
2024/01/30 01:59:04;;;;;;;5.55;4.60;;;6.70;99.90;;;;;;5098542;28;20019;-36
2024/01/30 02:01:32;;;;;;;5.10;4.60;;;6.70;99.90;;;;;;5099346;28;20228;-35
2024/01/30 02:03:58;;;;;;;4.63;4.20;;;6.70;99.90;;;;;;5099766;28;20016;-32
2024/01/30 02:06:28;;;;;;;5.53;4.82;;;6.70;99.90;;;;;;5099021;28;20946;-32
2024/01/30 02:08:54;;;;;;;5.32;4.22;;;6.80;99.90;;;;;;5098428;28;20059;-31
2024/01/30 02:11:23;;;;;;;5.97;4.65;;;6.80;99.90;;;;;;5100082;28;20105;-35
2024/01/30 02:13:50;;;;;;;5.43;4.90;;;6.80;99.90;;;;;;5098897;28;20020;-35
2024/01/30 02:16:17;;;;;;;6.10;5.18;;;6.80;99.90;;;;;;5099192;28;20046;-35
2024/01/30 02:18:45;;;;;;;5.63;4.75;;;6.80;99.90;;;;;;5100186;28;20058;-33
2024/01/30 02:21:10;;;;;;;6.38;5.03;;;6.80;99.90;;;;;;5099485;28;20030;-33
2024/01/30 02:23:37;;;;;;;5.97;5.03;;;6.80;99.90;;;;;;5099781;28;20039;-33
2024/01/30 02:26:03;;;;;;;5.85;5.07;;;6.80;99.90;;;;;;5094103;28;20015;-34
2024/01/30 02:28:29;;;;;;;5.28;4.63;;;6.80;99.90;;;;;;5098696;28;20027;-34
2024/01/30 02:30:54;;;;;;;5.10;4.60;;;6.80;99.90;;;;;;5099538;28;20058;-38
2024/01/30 02:33:23;;;;;;;4.88;4.20;;;6.80;99.90;;;;;;5099683;28;20023;-34
2024/01/30 02:35:48;;;;;;;5.30;4.65;;;6.70;99.90;;;;;;5098212;28;20498;-35
2024/01/30 02:38:15;;;;;;;6.28;4.70;;;6.70;99.90;;;;;;5099158;28;20031;-36
2024/01/30 02:40:41;;;;;;;6.13;4.63;;;6.70;99.90;;;;;;5099090;28;20035;-36
2024/01/30 02:43:07;;;;;;;6.43;4.97;;;6.70;99.90;;;;;;5099217;28;20625;-35
2024/01/30 02:45:32;;;;;;;5.07;4.57;;;6.70;99.90;;;;;;5098019;28;20036;-33
2024/01/30 02:47:58;;;;;;;5.43;4.93;;;6.80;99.90;;;;;;5098118;28;20028;-34
2024/01/30 02:50:23;;;;;;;6.95;4.93;;;6.80;99.90;;;;;;5098979;28;20035;-35
2024/01/30 02:52:49;;;;;;;5.47;4.55;;;6.80;99.90;;;;;;5099179;28;20477;-38
2024/01/30 02:55:17;;;;;;;5.40;4.85;;;6.80;99.90;;;;;;5097150;28;20066;-34
2024/01/30 02:57:46;;;;;;;5.70;4.68;;;6.70;99.90;;;;;;5098642;28;20027;-33
2024/01/30 03:00:12;;;;;;;4.97;4.47;;;6.70;99.90;;;;;;5098893;28;20069;-33
2024/01/30 03:02:37;;;;;;;6.35;5.30;;;6.80;99.90;;;;;;5099353;28;20031;-36
2024/01/30 03:05:05;;;;;;;5.82;5.07;;;6.80;99.90;;;;;;5099200;28;20030;-34
2024/01/30 03:07:31;;;;;;;5.53;4.90;;;6.80;99.90;;;;;;5097193;28;20032;-34
2024/01/30 03:09:56;;;;;;;6.20;5.20;;;6.70;99.90;;;;;;5098098;28;20132;-35
2024/01/30 03:12:22;;;;;;;5.93;5.20;;;6.70;99.90;;;;;;5098201;28;20034;-34
2024/01/30 03:14:49;;;;;;;6.30;4.88;;;6.70;99.90;;;;;;5098795;28;20050;-32
2024/01/30 03:17:14;;;;;;;6.85;5.32;;;6.70;99.90;;;;;;5097560;28;20034;-37
2024/01/30 03:19:40;;;;;;;5.57;4.95;;;6.70;99.90;;;;;;5099519;28;20028;-37
2024/01/30 03:22:06;;;;;;;5.25;4.43;;;6.60;99.90;;;;;;5098169;28;20138;-36
2024/01/30 03:24:31;;;;;;;5.35;4.85;;;6.60;99.90;;;;;;5097804;28;20096;-33
2024/01/30 03:26:57;;;;;;;6.85;5.28;;;6.60;99.90;;;;;;5098789;28;20027;-33
2024/01/30 03:29:22;;;;;;;6.53;5.55;;;6.60;99.90;;;;;;5098706;28;20032;-38
2024/01/30 03:31:48;;;;;;;5.85;5.05;;;6.50;99.90;;;;;;5098037;28;20026;-34
2024/01/30 03:34:14;;;;;;;6.10;5.10;;;6.60;99.90;;;;;;5099040;28;20023;-31
2024/01/30 03:36:39;;;;;;;5.60;4.78;;;6.60;99.90;;;;;;5098885;28;20035;-33
2024/01/30 03:39:06;;;;;;;6.57;5.22;;;6.60;99.90;;;;;;5098330;28;20066;-34
2024/01/30 03:41:31;;;;;;;7.30;5.90;;;6.50;99.90;;;;;;5098074;28;20026;-34
2024/01/30 03:43:57;;;;;;;6.40;5.10;;;6.60;99.90;;;;;;5098023;28;20024;-33
2024/01/30 03:46:23;;;;;;;6.60;5.30;;;6.60;99.90;;;;;;5097453;28;20498;-32
2024/01/30 03:48:49;;;;;;;5.80;5.05;;;6.60;99.90;;;;;;5084674;28;20661;-32
2024/01/30 03:51:15;;;;;;;6.32;5.28;;;6.60;99.90;;;;;;5088068;28;20022;-33
2024/01/30 03:53:41;;;;;;;5.22;4.70;;;6.60;99.90;;;;;;5099165;28;20024;-37
2024/01/30 03:56:10;;;;;;;7.53;5.35;;;6.60;99.90;;;;;;5098937;28;20012;-35
2024/01/30 03:58:35;;;;;;;5.75;5.15;;;6.60;99.90;;;;;;5097534;28;20758;-33
2024/01/30 04:01:01;;;;;;;5.45;4.95;;;6.60;99.90;;;;;;5098313;28;20018;-36
2024/01/30 04:03:27;;;;;;;5.45;4.80;;;6.60;99.90;;;;;;5097155;28;20043;-31
2024/01/30 04:05:53;;;;;;;6.00;5.05;;;6.60;99.90;;;;;;5098444;28;20749;-35
2024/01/30 04:08:19;;;;;;;5.15;4.65;;;6.60;99.90;;;;;;5098342;28;20035;-32
2024/01/30 04:10:44;;;;;;;6.22;5.28;;;6.60;99.90;;;;;;5098875;28;20032;-32
2024/01/30 04:13:10;;;;;;;6.15;5.22;;;6.60;99.90;;;;;;5098039;28;20876;-33
2024/01/30 04:15:36;;;;;;;7.38;5.47;;;6.60;99.90;;;;;;5098933;28;20043;-35
2024/01/30 04:18:01;;;;;;;7.05;5.25;;;6.70;99.90;;;;;;5098622;28;20415;-34
2024/01/30 04:20:27;;;;;;;8.70;5.70;;;6.70;99.90;;;;;;5101340;28;20077;-34
2024/01/30 04:22:53;;;;;;;6.57;5.57;;;6.70;99.90;;;;;;5100691;28;20031;-31
2024/01/30 04:25:18;;;;;;;6.90;6.20;;;6.70;99.90;;;;;;5100237;28;20036;-32
2024/01/30 04:27:44;;;;;;;8.02;5.53;;;6.70;99.90;;;;;;5100939;28;20494;-35
2024/01/30 04:30:10;;;;;;;6.68;5.53;;;6.70;99.90;;;;;;5101640;28;20043;-34
2024/01/30 04:32:36;;;;;;;6.05;5.07;;;6.80;99.90;;;;;;5101097;28;20072;-31
2024/01/30 04:35:03;;;;;;;5.43;4.93;;;6.80;99.90;;;;;;5101952;28;20095;-31
2024/01/30 04:37:28;;;;;;;6.47;5.78;;;6.80;99.90;;;;;;5101591;28;20031;-29
2024/01/30 04:39:54;;;;;;;6.30;5.35;;;6.80;99.90;;;;;;5101849;28;20019;-34
2024/01/30 04:42:19;;;;;;;5.63;5.10;;;6.80;99.90;;;;;;5100601;28;20036;-33
2024/01/30 04:44:45;;;;;;;6.65;5.45;;;6.80;99.90;;;;;;5102263;28;20025;-36
2024/01/30 04:47:11;;;;;;;6.55;5.20;;;6.80;99.90;;;;;;5100406;28;20020;-34
2024/01/30 04:49:39;;;;;;;5.65;4.88;;;6.80;99.90;;;;;;5102019;28;20031;-32
2024/01/30 04:52:05;;;;;;;6.38;5.50;;;6.80;99.90;;;;;;5100660;28;20023;-35
2024/01/30 04:54:31;;;;;;;5.82;4.90;;;6.80;99.90;;;;;;5098284;28;20028;-33
2024/01/30 04:56:56;;;;;;;6.30;4.93;;;6.90;99.90;;;;;;5100539;28;20470;-32
2024/01/30 04:59:22;;;;;;;5.90;5.03;;;6.90;99.90;;;;;;5100849;28;20545;-33
2024/01/30 05:01:48;;;;;;;7.95;4.90;;;6.90;99.90;;;;;;5102026;28;20583;-31
2024/01/30 05:04:13;;;;;;;5.70;5.10;;;7.00;99.90;;;;;;5101529;28;20027;-33
2024/01/30 05:06:39;;;;;;;6.68;5.35;;;7.00;99.90;;;;;;5102080;28;20476;-32
2024/01/30 05:09:04;;;;;;;5.57;4.63;;;7.00;99.90;;;;;;5100532;28;20039;-37
2024/01/30 05:11:30;;;;;;;5.47;4.93;;;7.10;99.90;;;;;;5101640;28;20023;-36
2024/01/30 05:13:56;;;;;;;6.47;5.10;;;7.10;99.90;;;;;;5101521;28;20801;-36
2024/01/30 05:16:22;;;;;;;5.85;4.97;;;7.20;99.90;;;;;;5100494;28;20138;-33
2024/01/30 05:18:47;;;;;;;5.30;4.72;;;7.20;99.90;;;;;;5101587;28;20471;-36
2024/01/30 05:21:13;;;;;;;6.35;5.10;;;7.20;99.90;;;;;;5100587;28;20079;-35
2024/01/30 05:23:39;;;;;;;5.57;4.97;;;7.20;99.90;;;;;;5100193;28;20055;-36
2024/01/30 05:26:05;;;;;;;6.15;5.43;;;7.20;99.90;;;;;;5100557;28;20110;-33
2024/01/30 05:28:33;;;;;;;5.93;5.30;;;7.20;99.90;;;;;;5100719;28;20034;-36
2024/01/30 05:30:59;;;;;;;4.60;3.90;;;7.20;99.90;;;;;;5099195;28;20383;-32
2024/01/30 05:33:25;;;;;;;5.22;4.65;;;7.30;99.90;;;;;;5100594;28;20019;-33
2024/01/30 05:35:54;;;;;;;6.57;4.82;;;7.30;99.90;;;;;;5100792;28;20111;-37
2024/01/30 05:38:19;;;;;;;6.35;5.30;;;7.30;99.90;;;;;;5099872;28;20059;-35
2024/01/30 05:40:45;;;;;;;5.47;4.85;;;7.30;99.90;;;;;;5101367;28;20138;-35
2024/01/30 05:43:11;;;;;;;5.53;4.88;;;7.40;99.90;;;;;;5100409;28;20467;-36
2024/01/30 05:45:37;;;;;;;5.28;4.45;;;7.40;99.90;;;;;;5099858;28;20031;-33
2024/01/30 05:48:02;;;;;;;6.15;4.55;;;7.40;99.90;;;;;;5080338;28;20474;-35
2024/01/30 05:50:28;;;;;;;5.68;4.75;;;7.50;99.90;;;;;;5094043;28;20027;-37
2024/01/30 05:52:53;;;;;;;5.82;4.53;;;7.50;99.90;;;;;;5100797;28;20168;-37
2024/01/30 05:55:19;;;;;;;4.85;3.85;;;7.50;99.90;;;;;;5100390;28;20023;-35
2024/01/30 05:57:45;;;;;;;4.85;4.35;;;7.50;99.90;;;;;;5100227;28;20015;-33
2024/01/30 06:00:11;;;;;;;4.68;3.78;;;7.60;99.90;;;;;;5100249;28;20427;-34
2024/01/30 06:02:36;;;;;;;4.85;4.07;;;7.60;99.90;;;;;;5101216;28;20027;-33
2024/01/30 06:05:02;;;;;;;4.45;4.00;;;7.70;99.90;;;;;;5099005;28;20095;-36
2024/01/30 06:07:28;;;;;;;4.32;3.92;;;7.70;99.90;;;;;;5099825;28;20031;-36
2024/01/30 06:09:54;;;;;;;4.35;3.95;;;7.80;99.90;;;;;;5099823;28;20036;-30
2024/01/30 06:12:19;;;;;;;7.25;4.53;;;7.80;99.90;;;;;;5098425;28;20110;-33
2024/01/30 06:14:48;;;;;;;4.43;3.70;;;7.80;99.90;;;;;;5100280;28;20047;-33
2024/01/30 06:17:17;;;;;;;5.32;4.00;;;7.80;99.90;;;;;;5098927;28;20048;-38
2024/01/30 06:19:48;;;;;;;4.35;3.72;;;7.90;99.90;;;;;;5100081;28;20111;-34
2024/01/30 06:22:14;;;;;;;5.07;4.18;;;7.90;99.90;;;;;;5099590;28;20463;-36
2024/01/30 06:24:40;;;;;;;4.45;4.03;;;7.90;99.90;;;;;;5100242;28;20034;-31
2024/01/30 06:27:06;;;;;;;4.45;3.78;;;7.90;99.90;;;;;;5099513;28;20687;-31
2024/01/30 06:29:31;;;;;;;4.63;3.75;;;8.00;99.90;;;;;;5100013;28;20771;-34
2024/01/30 06:31:57;;;;;;;4.18;3.78;;;8.00;99.90;;;;;;5100629;28;20024;-34
2024/01/30 06:34:22;;;;;;;5.97;3.85;;;8.00;99.90;;;;;;5099916;28;20792;-34
2024/01/30 06:36:48;;;;;;;5.78;4.03;;;8.00;99.90;;;;;;5099667;28;20030;-33
2024/01/30 06:39:14;;;;;;;4.85;3.90;;;8.00;99.90;;;;;;5099692;28;20031;-36
2024/01/30 06:41:39;;;;;;;4.22;3.80;;;8.10;99.90;;;;;;5098452;28;20073;-35
2024/01/30 06:44:06;;;;;;;5.28;4.43;;;8.10;99.90;;;;;;5100073;28;20036;-36
2024/01/30 06:46:32;;;;;;;4.68;3.72;;;8.10;99.90;;;;;;5098774;28;20414;-36
2024/01/30 06:48:58;;;;;;;5.07;4.07;;;8.10;99.90;;;;;;5098808;28;20045;-35
2024/01/30 06:51:23;;;;;;;5.80;4.20;;;8.10;99.90;;;;;;5099054;28;20031;-35
2024/01/30 06:53:49;;;;;;;3.80;3.40;;;8.10;99.90;;;;;;5099148;28;20027;-34
2024/01/30 06:56:20;;;;;;;4.13;3.72;;;8.20;99.90;;;;;;5099397;28;20024;-38
2024/01/30 06:58:49;;;;;;;4.60;3.95;;;8.20;99.90;;;;;;5099451;28;20455;-33
2024/01/30 07:01:15;;;;;;;6.55;4.43;;;8.20;99.90;;;;;;5098559;28;20027;-35
2024/01/30 07:03:41;;;;;;;4.05;3.60;;;8.20;99.90;;;;;;5098553;28;20016;-35
2024/01/30 07:06:07;;;;;;;4.22;3.83;;;8.20;99.90;;;;;;5099029;28;20032;-31
2024/01/30 07:08:33;;;;;;;5.95;4.85;;;8.20;99.90;;;;;;5098682;28;20027;-35
2024/01/30 07:10:58;;;;;;;5.63;4.57;;;8.30;99.90;;;;;;5101113;28;20074;-34
2024/01/30 07:13:24;;;;;;;5.95;4.93;;;8.30;99.90;;;;;;5097178;28;20028;-34
2024/01/30 07:15:50;;;;;;;5.00;4.50;;;8.30;99.90;;;;;;5098072;28;20079;-36
2024/01/30 07:18:16;;;;;;;5.40;4.38;;;8.40;99.90;;;;;;5098901;28;20315;-33
2024/01/30 07:20:49;;;;;;;6.57;4.50;;;8.40;99.90;;;;;;5098926;28;20939;-34
2024/01/30 07:23:17;;;;;;;3.95;3.55;;;8.40;99.90;;;;;;5096565;28;20023;-36
2024/01/30 07:25:43;;;;;;;4.10;3.70;;;8.40;99.90;;;;;;5097722;28;20028;-34
2024/01/30 07:28:10;;;;;;;5.57;4.15;;;8.40;99.90;;;;;;5098526;28;20695;-31
2024/01/30 07:30:36;;;;;;;4.68;4.18;;;8.50;99.90;;;;;;5097865;28;20043;-37
2024/01/30 07:33:02;;;;;;;4.25;3.80;;;8.50;99.90;;;;;;5098450;28;20782;-35
2024/01/30 07:35:28;;;;;;;4.72;3.92;;;8.50;99.90;;;;;;5080281;28;20031;-34
2024/01/30 07:37:53;;;;;;;5.00;3.90;;;8.60;99.90;;;;;;5097858;28;20100;-34
2024/01/30 07:40:19;;;;;;;4.78;4.28;;;8.60;99.90;;;;;;5096466;28;20108;-31
2024/01/30 07:42:45;;;;;;;5.03;4.35;;;8.60;99.90;;;;;;5098560;28;20462;-33
2024/01/30 07:45:10;;;;;;;5.13;4.07;;;8.70;99.90;;;;;;5096782;28;20458;-36
2024/01/30 07:47:36;;;;;;;4.70;4.20;;;8.70;99.90;;;;;;5099146;28;20036;-31
2024/01/30 07:50:02;;;;;;;4.20;3.80;;;8.60;99.90;;;;;;5097829;28;20035;-30
2024/01/30 07:52:28;;;;;;;5.38;4.75;;;8.70;99.90;;;;;;5097063;28;20016;-35
2024/01/30 07:54:55;;;;;;;4.72;4.20;;;8.70;99.90;;;;;;5100509;28;20027;-32
2024/01/30 07:57:20;;;;;;;5.13;3.53;;;8.70;99.90;;;;;;5101609;28;20031;-33
2024/01/30 07:59:46;;;;;;;3.63;3.33;;;8.70;99.90;;;;;;5102660;28;20032;-35
2024/01/30 08:02:15;;;;;;;4.32;3.80;;;8.80;99.90;;;;;;5101810;28;20054;-35
2024/01/30 08:04:41;;;;;;;5.18;3.95;;;8.90;99.90;;;;;;5101909;28;20634;-36
2024/01/30 08:07:06;;;;;;;4.50;3.53;;;8.90;99.90;;;;;;5102491;28;20028;-36
2024/01/30 08:09:32;;;;;;;4.85;3.67;;;8.90;99.90;;;;;;5101319;28;20367;-34
2024/01/30 08:11:58;;;;;;;4.22;3.83;;;8.90;99.90;;;;;;5101189;28;20051;-35
2024/01/30 08:14:25;;;;;;;4.78;3.90;;;9.00;99.90;;;;;;5100580;28;20032;-32
2024/01/30 08:16:51;;;;;;;4.85;3.90;;;9.10;99.90;;;;;;5100066;28;20125;-35
2024/01/30 08:19:16;;;;;;;4.05;3.65;;;9.10;99.90;;;;;;5093858;27;20549;-37
2024/01/30 08:21:42;;;;;;;4.05;3.60;;;9.10;99.90;;;;;;5100205;28;20525;-35
2024/01/30 08:24:08;;;;;;;3.53;3.20;;;9.20;99.90;;;;;;5101557;28;20043;-34
2024/01/30 08:26:34;;;;;;;5.65;4.50;;;9.20;99.90;;;;;;5104891;27;20024;-35
2024/01/30 08:28:59;;;;;;;3.88;3.45;;;9.30;99.90;;;;;;5101350;28;20067;-36
2024/01/30 08:31:25;;;;;;;4.05;3.65;;;9.30;99.90;;;;;;5101330;28;20640;-35
2024/01/30 08:33:51;;;;;;;4.55;3.40;;;9.40;99.90;;;;;;5101100;28;20027;-35
2024/01/30 08:36:17;;;;;;;4.70;4.20;;;9.40;99.90;;;;;;5100982;28;20035;-33
2024/01/30 08:38:42;;;;;;;4.28;3.83;;;9.50;99.90;;;;;;5101694;28;20111;-33
2024/01/30 08:41:08;;;;;;;3.78;3.30;;;9.50;99.90;;;;;;5101107;28;20111;-37
2024/01/30 08:43:34;;;;;;;3.80;3.42;;;9.60;99.90;;;;;;5100543;28;20028;-36
2024/01/30 08:46:00;;;;;;;4.03;3.47;;;9.60;99.90;;;;;;5101258;28;20030;-34
2024/01/30 08:48:26;;;;;;;4.35;3.72;;;9.60;99.90;;;;;;5101097;28;20028;-37
2024/01/30 08:50:52;;;;;;;5.07;3.83;;;9.70;99.90;;;;;;5101395;28;20039;-33
2024/01/30 08:53:18;;;;;;;3.88;3.33;;;9.70;99.90;;;;;;5100740;28;20057;-32
2024/01/30 08:55:44;;;;;;;4.57;3.45;;;9.70;99.90;;;;;;5101795;28;20028;-32
2024/01/30 08:58:10;;;;;;;3.88;3.47;;;9.80;99.90;;;;;;5101586;28;20032;-34
2024/01/30 09:00:36;;;;;;;4.15;3.50;;;9.80;99.90;;;;;;5100619;28;20650;-36
2024/01/30 09:03:01;;;;;;;4.63;3.60;;;9.80;99.90;;;;;;5101508;28;20024;-32
2024/01/30 09:05:27;;;;;;;4.00;3.60;;;9.90;99.90;;;;;;5100529;28;20032;-33
2024/01/30 09:07:53;;;;;;;4.22;3.53;;;9.90;99.90;;;;;;5100387;28;20024;-34
2024/01/30 09:10:19;;;;;;;3.78;3.38;;;9.90;99.90;;;;;;5101447;28;20037;-35
2024/01/30 09:12:44;;;;;;;3.95;3.50;;;10.00;99.90;;;;;;5101011;28;20466;-36
2024/01/30 09:15:10;;;;;;;3.63;3.25;;;10.00;99.90;;;;;;5099859;28;20031;-36
2024/01/30 09:17:36;;;;;;;4.13;3.72;;;10.00;99.90;;;;;;5099875;28;20584;-36
2024/01/30 09:20:01;;;;;;;5.35;4.47;;;10.10;99.90;;;;;;5099316;28;20035;-35
2024/01/30 09:22:27;;;;;;;4.10;3.70;;;10.00;99.90;;;;;;5097880;28;20031;-38
2024/01/30 09:24:53;;;;;;;4.05;3.65;;;10.10;99.90;;;;;;5099322;28;20032;-36
2024/01/30 09:27:18;;;;;;;3.97;3.60;;;10.10;99.90;;;;;;5098411;28;20016;-34
2024/01/30 09:29:44;;;;;;;3.85;3.45;;;10.20;99.90;;;;;;5099304;28;20631;-36
2024/01/30 09:32:09;;;;;;;4.43;3.47;;;10.20;99.90;;;;;;5099884;28;20478;-33
2024/01/30 09:34:35;;;;;;;4.22;3.80;;;10.20;99.90;;;;;;5100976;28;20557;-35
2024/01/30 09:37:00;;;;;;;3.85;3.45;;;10.30;99.90;;;;;;5100072;28;20034;-31
2024/01/30 09:39:26;;;;;;;4.00;3.60;;;10.30;99.90;;;;;;5099415;28;20028;-36
2024/01/30 09:42:05;;;;;;;4.60;3.95;;;10.30;99.90;;;;;;5099847;28;20023;-36
2024/01/30 09:44:31;;;;;;;4.07;3.60;;;10.30;99.90;;;;;;5097165;28;20592;-34
2024/01/30 09:47:05;;;;;;;4.25;3.85;;;10.30;99.90;;;;;;5098984;28;20055;-36
2024/01/30 09:49:35;;;;;;;4.68;3.83;;;10.40;99.90;;;;;;5097821;28;20039;-36
2024/01/30 09:52:05;;;;;;;5.38;3.95;;;10.40;99.90;;;;;;5098889;28;20020;-33
2024/01/30 09:54:31;;;;;;;4.18;3.50;;;10.40;99.90;;;;;;5100887;28;20028;-33
2024/01/30 09:56:57;;;;;;;4.55;3.80;;;10.40;99.90;;;;;;5099453;28;20016;-34
2024/01/30 09:59:32;;;;;;;6.18;4.15;;;10.40;99.90;;;;;;5100290;28;20023;-35
2024/01/30 10:01:58;;;;;;;5.63;3.72;;;10.50;99.90;;;;;;5099627;28;20470;-36
2024/01/30 10:04:30;;;;;;;4.30;3.58;;;10.50;99.90;;;;;;5098895;28;20036;-36
2024/01/30 10:06:56;;;;;;;5.65;4.03;;;10.50;99.90;;;;;;5100427;28;20103;-34
2024/01/30 10:09:22;;;;;;;5.03;4.05;;;10.60;99.90;;;;;;5100522;28;20042;-36
2024/01/30 10:11:48;;;;;;;6.30;4.30;;;10.60;99.90;;;;;;5100225;28;20019;-32
2024/01/30 10:14:15;;;;;;;4.93;4.10;;;10.70;99.90;;;;;;5100372;28;20023;-36
2024/01/30 10:16:40;;;;;;;4.10;3.58;;;10.70;99.90;;;;;;5099310;28;20493;-33
2024/01/30 10:19:06;;;;;;;5.32;3.67;;;10.80;99.90;;;;;;5099500;28;20080;-34
2024/01/30 10:21:32;;;;;;;4.60;3.72;;;10.80;99.90;;;;;;5100123;28;20612;-35
2024/01/30 10:23:57;;;;;;;5.95;4.05;;;10.80;99.90;;;;;;5099850;28;20369;-33
2024/01/30 10:26:23;;;;;;;5.93;4.80;;;10.80;99.90;;;;;;5099279;28;20024;-35
2024/01/30 10:28:49;;;;;;;5.25;4.60;;;10.90;99.90;;;;;;5100439;28;20902;-34
2024/01/30 10:31:20;;;;;;;5.50;4.75;;;10.90;99.90;;;;;;5089171;28;20110;-35
2024/01/30 10:33:46;;;;;;;6.47;4.43;;;10.90;99.90;;;;;;5083048;28;20027;-36
2024/01/30 10:36:13;;;;;;;5.20;4.07;;;10.90;99.90;;;;;;5098264;28;20081;-36
2024/01/30 10:38:42;;;;;;;5.82;4.72;;;11.00;99.90;;;;;;5099489;28;20078;-36
2024/01/30 10:41:19;;;;;;;4.63;4.22;;;11.00;99.90;;;;;;5094619;28;20023;-35
2024/01/30 10:43:51;;;;;;;5.60;4.50;;;11.00;99.90;;;;;;5099448;28;20042;-33
2024/01/30 10:46:24;;;;;;;7.20;5.32;;;11.10;99.90;;;;;;5094806;28;20417;-37
2024/01/30 10:48:58;;;;;;;;;;;11.10;99.90;;;;;;5099420;28;20142;-35
2024/01/30 10:51:28;;;;;;;6.82;5.25;;;11.20;99.90;;;;;;5098752;28;19965;-35
2024/01/30 10:53:55;;;;;;;6.47;5.10;;;11.20;99.90;;;;;;5079165;28;20756;-36
2024/01/30 10:56:21;;;;;;;6.00;4.50;;;11.20;99.90;;;;;;5088997;28;20676;-35
2024/01/30 10:58:52;;;;;;;5.45;4.88;;;11.20;99.90;;;;;;5096264;28;20039;-35
2024/01/30 11:01:22;;;;;;;5.80;4.90;;;11.30;99.90;;;;;;5097285;28;20126;-35
2024/01/30 11:03:50;;;;;;;6.85;4.70;;;11.30;99.90;;;;;;5099016;28;20020;-33
2024/01/30 11:06:18;;;;;;;9.35;6.00;;;11.40;99.90;;;;;;5097310;28;20504;-35
2024/01/30 11:08:59;;;;;;;8.65;6.30;;;11.40;99.90;;;;;;5096447;28;20032;-36
2024/01/30 11:11:28;;;;;;;6.82;6.07;;;11.50;99.90;;;;;;5096841;28;20732;-34
2024/01/30 11:13:53;;;;;;;7.63;6.05;;;11.60;99.90;;;;;;5089142;28;20740;-32
2024/01/30 11:16:20;;;;;;;7.55;6.72;;;11.70;99.90;;;;;;5091804;28;20637;-34
2024/01/30 11:18:51;;;;;;;13.35;8.38;;;11.70;99.90;;;;;;5099221;28;20532;-37
2024/01/30 11:21:16;;;;;;;13.27;9.43;;;11.80;99.90;;;;;;5098445;28;20350;-33
2024/01/30 11:23:45;;;;;;;13.15;10.80;;;11.90;99.90;;;;;;5099166;28;20756;-35
2024/01/30 11:26:13;;;;;;;13.35;10.20;;;12.00;99.90;;;;;;5098693;28;20016;-37
2024/01/30 11:28:39;;;;;;;13.85;10.25;;;12.00;99.90;;;;;;5100692;28;20042;-33
2024/01/30 11:31:08;;;;;;;14.05;9.13;;;12.00;99.90;;;;;;5103386;28;20027;-35
2024/01/30 11:33:34;;;;;;;9.15;7.50;;;12.00;99.90;;;;;;5103417;28;20034;-35
2024/01/30 11:36:00;;;;;;;8.80;6.60;;;12.00;99.90;;;;;;5111299;27;20032;-35
2024/01/30 11:38:27;;;;;;;10.38;6.57;;;12.00;99.90;;;;;;5092583;28;20020;-37
2024/01/30 11:40:59;;;;;;;8.48;6.57;;;12.00;99.90;;;;;;5100899;28;20034;-36
2024/01/30 11:43:24;;;;;;;6.90;5.35;;;12.00;99.90;;;;;;5100999;28;20019;-37
2024/01/30 11:45:51;;;;;;;7.10;5.40;;;12.00;99.90;;;;;;5102804;28;20035;-37
2024/01/30 11:48:20;;;;;;;6.88;6.00;;;12.10;99.90;;;;;;5101477;28;20026;-33
2024/01/30 11:50:46;;;;;;;8.57;6.45;;;12.10;99.90;;;;;;5100517;28;20092;-32
2024/01/30 11:53:12;;;;;;;8.80;5.90;;;12.10;99.90;;;;;;5097811;28;20024;-34
2024/01/30 11:55:38;;;;;;;7.30;5.90;;;12.20;99.90;;;;;;5102108;28;20034;-31
2024/01/30 11:58:04;;;;;;;7.90;5.70;;;12.20;99.90;;;;;;5099785;28;20023;-32
2024/01/30 12:00:33;;;;;;;8.57;5.90;;;12.30;99.90;;;;;;5102237;28;20073;-31
2024/01/30 12:03:00;;;;;;;6.97;5.45;;;12.30;99.90;;;;;;5102440;28;20031;-33
2024/01/30 12:05:27;;;;;;;7.75;5.82;;;12.40;99.90;;;;;;5101100;28;20023;-30
2024/01/30 12:07:52;;;;;;;9.20;5.93;;;12.40;99.90;;;;;;5101260;28;20659;-31
2024/01/30 12:10:18;;;;;;;6.35;5.65;;;12.30;99.90;;;;;;5101531;28;20188;-32
2024/01/30 12:12:47;;;;;;;5.60;4.93;;;12.30;99.90;;;;;;5102271;28;20101;-33
2024/01/30 12:15:13;;;;;;;7.57;5.22;;;12.30;99.90;;;;;;5101748;28;20035;-34
2024/01/30 12:17:39;;;;;;;7.07;5.72;;;12.20;99.90;;;;;;5101014;28;20028;-34
2024/01/30 12:20:09;;;;;;;5.95;5.22;;;12.20;99.90;;;;;;5102151;28;20067;-32
2024/01/30 12:22:48;;;;;;;6.50;5.65;;;12.30;99.90;;;;;;5101017;28;20008;-38
2024/01/30 12:25:14;;;;;;;7.18;5.63;;;12.30;99.90;;;;;;5100783;28;20425;-35
2024/01/30 12:27:43;;;;;;;8.57;6.53;;;12.40;99.90;;;;;;5102496;28;20011;-35
2024/01/30 12:30:10;;;;;;;7.72;5.68;;;12.40;99.90;;;;;;5101387;28;20147;-36
2024/01/30 12:32:43;;;;;;;7.10;5.75;;;12.40;99.90;;;;;;5100840;28;20024;-35
2024/01/30 12:35:14;;;;;;;7.50;5.38;;;12.50;99.90;;;;;;5110020;27;20068;-36
2024/01/30 12:37:43;;;;;;;8.63;4.82;;;12.40;99.90;;;;;;5120324;27;20015;-31
2024/01/30 12:40:10;;;;;;;5.68;3.90;;;12.40;99.90;;;;;;5100150;28;20024;-34
2024/01/30 12:42:36;;;;;;;7.38;3.50;;;12.30;99.90;;;;;;5100448;28;20039;-36
2024/01/30 12:45:05;;;;;;;5.47;3.00;;;12.20;99.90;;;;;;5100275;28;20043;-34
2024/01/30 12:47:31;;;;;;;8.43;2.90;;;12.00;99.90;;;;;;5100122;28;20534;-36
2024/01/30 12:49:57;;;;;;;4.68;2.70;;;12.00;99.90;;;;;;5100844;28;20461;-36